Alpena, Michigan
Current Conditions -  °F | °C
As of 9:54 PM on Thursday 27 Nov 2014 (Local Time) from KAPN Reporting Station
Overcast Overcast  
Wind Chill:   Ceiling: 3600
Heat Index: 16°   Visibility: 10mi
Dew Point:   Wind: 9mph
Humidity: 74%   Direction: 280°W
Pressure: 30.26"   Gusts: 18mph
Location:  45.06°N, 83.44°W
Report Text: KAPN 280254Z AUTO 28008G16KT 10SM OVC036 M09/M13 A3026 RMK AO2 SLP258 T10891128 51008
Loading
Personal Weather Stations






























Interactive Weather Map New forecast layout! Learn more

10-Day Weather Forecast

Advertisements
Track Severe Weather on mobile